Overview Statistics Trail Chart Weather Telemetry Raw packets
 

This is the latest recevied weather packets stored in our database for station/object Dunnningn. If no packets are shown the sender has not sent any weather packets the latest 10 day(s).

<< 5 6 7 8 9 10 11 >>
Time Temp. Humidity Pressure Rain* Wind** Luminosity Snow
1788330729 11.11° C 89% 1021.5 hPa 0 mm - - -
1788328929 10° C 89% 1021.6 hPa 0 mm - - -
1788327130 9.44° C 89% 1021.5 hPa 0 mm - - -
1788325330 9.44° C 89% 1021.1 hPa 0 mm - - -
1788323529 9.44° C 89% 1021.1 hPa 0 mm - - -
1788321730 9.44° C 89% 1021.2 hPa 0 mm - - -
1788319930 9.44° C 88% 1021.1 hPa 0 mm - - -
1788318129 10° C 88% 1021.2 hPa 0 mm - - -
1788316330 10° C 88% 1021.2 hPa 0 mm - - -
1788314529 10° C 87% 1021.2 hPa 0 mm - - -
1788312729 10° C 87% 1021.2 hPa 0 mm - - -
1788310930 10.56° C 86% 1021.5 hPa 0 mm - - -
1788309131 10.56° C 84% 1021.6 hPa 0 mm - - -
1788307331 11.11° C 83% 1021.7 hPa 0 mm - - -
1788305531 11.67° C 83% 1021.7 hPa 0 mm - - -
1788303731 12.22° C 81% 1021.8 hPa 0 mm - - -
1788301930 12.78° C 80% 1021.8 hPa 0 mm - - -
1788300131 13.33° C 78% 1021.8 hPa 0 mm - - -
1788298331 13.89° C 77% 1021.9 hPa 0 mm - - -
1788296531 14.44° C 74% 1021.8 hPa 0 mm - - -
1788294730 15° C 72% 1021.9 hPa 0 mm - - -
1788292931 15.56° C 70% 1021.9 hPa 0 mm - - -
1788291131 16.67° C 67% 1021.8 hPa 0 mm - - -
1788289330 17.78° C 62% 1021.6 hPa 0 mm - - -
1788287533 18.89° C 58% 1021.4 hPa 0 mm - - -

* Rain since midnight (hover to see other rain measurements)
** Current wind speed in m/s (hover to see current wind gust speed)